createdAt,value
2018-07-14T00:00:45.023Z,65.55
2018-07-14T00:01:44.980Z,65.05
2018-07-14T00:02:44.974Z,64.75
2018-07-14T00:03:44.962Z,64.25
2018-07-14T00:04:44.948Z,64.15
2018-07-14T00:05:44.958Z,63.35
2018-07-14T00:06:44.925Z,61.85
2018-07-14T00:07:44.916Z,61.65
2018-07-14T00:08:44.906Z,62.85
2018-07-14T00:09:44.892Z,61.85
2018-07-14T00:10:44.904Z,61.45
2018-07-14T00:11:44.885Z,61.35
2018-07-14T00:12:44.858Z,61.65
2018-07-14T00:13:44.849Z,61.15
2018-07-14T00:14:44.844Z,59.35
2018-07-14T00:15:44.852Z,60.55
2018-07-14T00:16:44.813Z,60.75
2018-07-14T00:17:44.803Z,60.25
2018-07-14T00:18:44.791Z,60.18
2018-07-14T00:19:44.782Z,60.38
2018-07-14T00:20:44.772Z,62.48
2018-07-14T00:21:44.778Z,63.08
2018-07-14T00:22:44.770Z,62.88
2018-07-14T00:23:44.746Z,62.68
2018-07-14T00:24:44.725Z,63.28
2018-07-14T00:25:44.714Z,63.31
2018-07-14T00:26:44.754Z,63.81
2018-07-14T00:27:44.717Z,64.31
2018-07-14T00:28:44.687Z,64.62
2018-07-14T00:29:44.669Z,64.72
2018-07-14T00:30:44.659Z,64.92
2018-07-14T00:31:44.650Z,65.12
2018-07-14T00:32:44.640Z,65.12
2018-07-14T00:33:44.655Z,64.92
2018-07-14T00:34:44.640Z,65.01
2018-07-14T00:35:44.606Z,64.81
2018-07-14T00:36:44.594Z,64.75
2018-07-14T00:37:44.582Z,65.15
2018-07-14T00:38:44.601Z,65.35
2018-07-14T00:39:44.563Z,65.48
2018-07-14T00:40:44.550Z,65.45
2018-07-14T00:41:44.541Z,65.75
2018-07-14T00:42:44.530Z,65.55
2018-07-14T00:43:44.516Z,66.08
2018-07-14T00:44:44.536Z,66.38
2018-07-14T00:45:44.518Z,66.48
2018-07-14T00:46:44.495Z,66.38
2018-07-14T00:47:44.478Z,66.28
2018-07-14T00:48:44.466Z,66.48
2018-07-14T00:49:44.452Z,66.78
2018-07-14T00:50:44.460Z,66.28
2018-07-14T00:51:44.431Z,66.28
2018-07-14T00:52:44.422Z,66.68
2018-07-14T00:53:44.425Z,66.68
2018-07-14T00:54:44.400Z,67.29
2018-07-14T00:55:44.412Z,67.18
2018-07-14T00:56:44.413Z,67.32
2018-07-14T00:57:44.368Z,67.49
2018-07-14T00:58:44.359Z,66.78
2018-07-14T00:59:44.349Z,66.78
2018-07-14T01:00:44.356Z,66.58
2018-07-14T01:01:44.333Z,66.78
2018-07-14T01:02:44.334Z,66.58
2018-07-14T01:03:44.308Z,66.48
2018-07-14T01:04:44.292Z,66.28
2018-07-14T01:05:44.281Z,66.38
2018-07-14T01:06:44.337Z,66.38
2018-07-14T01:07:44.262Z,66.28
2018-07-14T01:08:44.258Z,66.28
2018-07-14T01:09:44.244Z,66.18
2018-07-14T01:10:44.248Z,66.48
2018-07-14T01:11:44.214Z,66.28
2018-07-14T01:12:44.223Z,66.68
2018-07-14T01:13:44.204Z,66.61
2018-07-14T01:14:44.185Z,66.78
2018-07-14T01:15:44.182Z,66.91
2018-07-14T01:16:44.161Z,67.11
2018-07-14T01:17:44.228Z,66.82
2018-07-14T01:18:44.140Z,67.32
2018-07-14T01:19:44.145Z,67.11
2018-07-14T01:20:44.122Z,67.11
2018-07-14T01:21:44.124Z,66.71
2018-07-14T01:22:44.127Z,66.91
2018-07-14T01:23:44.093Z,66.71
2018-07-14T01:24:44.076Z,66.82
2018-07-14T01:25:44.070Z,67.11
2018-07-14T01:26:44.053Z,67.02
2018-07-14T01:27:44.043Z,67.82
2018-07-14T01:28:44.062Z,67.35
2018-07-14T01:29:44.026Z,67.45
2018-07-14T01:30:44.006Z,67.85
2018-07-14T01:31:44.004Z,67.35
2018-07-14T01:32:43.992Z,67.42
2018-07-14T01:33:43.981Z,67.55
2018-07-14T01:34:43.980Z,67.85
2018-07-14T01:35:43.954Z,67.88
2018-07-14T01:36:43.945Z,67.85
2018-07-14T01:37:43.932Z,67.55
2018-07-14T01:38:43.923Z,67.95
2018-07-14T01:39:43.936Z,67.65
2018-07-14T01:40:44.079Z,68.45
2018-07-14T01:41:43.899Z,67.95
2018-07-14T01:42:43.873Z,67.98
2018-07-14T01:43:43.870Z,67.75
2018-07-14T01:44:43.857Z,67.98
2018-07-14T01:45:43.863Z,68.29
2018-07-14T01:46:43.830Z,68.29
2018-07-14T01:47:43.825Z,68.08
2018-07-14T01:48:43.814Z,68.18
2018-07-14T01:49:43.807Z,68.08
2018-07-14T01:50:43.811Z,68.55
2018-07-14T01:51:43.777Z,68.08
2018-07-14T01:52:43.766Z,67.35
2018-07-14T01:53:43.759Z,68.08
2018-07-14T01:54:43.770Z,67.98
2018-07-14T01:55:43.744Z,68.08
2018-07-14T01:56:43.746Z,67.78
2018-07-14T01:57:43.714Z,68.18
2018-07-14T01:58:43.698Z,67.55
2018-07-14T01:59:43.688Z,67.48
2018-07-14T02:00:43.678Z,67.45
2018-07-14T02:01:43.669Z,68.05
2018-07-14T02:02:43.675Z,67.85
2018-07-14T02:03:43.643Z,67.55
2018-07-14T02:04:43.634Z,68.05
2018-07-14T02:05:43.658Z,68.45
2018-07-14T02:06:43.611Z,68.55
2018-07-14T02:07:43.618Z,68.65
2018-07-14T02:08:43.595Z,69.35
2018-07-14T02:09:43.579Z,69.35
2018-07-14T02:10:43.583Z,69.66
2018-07-14T02:11:43.557Z,69.35
2018-07-14T02:12:43.569Z,69.76
2018-07-14T02:13:43.538Z,69.76
2018-07-14T02:14:43.536Z,69.66
2018-07-14T02:15:43.518Z,69.56
2018-07-14T02:16:43.501Z,69.56
2018-07-14T02:17:43.491Z,69.35
2018-07-14T02:18:43.513Z,69.39
2018-07-14T02:19:43.465Z,69.39
2018-07-14T02:20:43.467Z,69.39
2018-07-14T02:21:43.447Z,68.29
2018-07-14T02:22:43.434Z,68.18
2018-07-14T02:23:43.448Z,67.58
2018-07-14T02:24:43.414Z,66.47
2018-07-14T02:25:43.399Z,66.08
2018-07-14T02:26:43.392Z,66.47
2018-07-14T02:27:43.380Z,66.58
2018-07-14T02:28:43.366Z,67.21
2018-07-14T02:29:43.375Z,67.78
2018-07-14T02:30:43.351Z,67.48
2018-07-14T02:31:43.361Z,66.67
2018-07-14T02:32:43.328Z,66.58
2018-07-14T02:33:43.313Z,66.28
2018-07-14T02:34:43.339Z,66.31
2018-07-14T02:35:43.296Z,66.28
2018-07-14T02:36:43.278Z,65.97
2018-07-14T02:37:43.272Z,66.58
2018-07-14T02:38:43.286Z,66.38
2018-07-14T02:39:43.245Z,65.88
2018-07-14T02:40:43.252Z,66.28
2018-07-14T02:41:43.237Z,66.47
2018-07-14T02:42:43.212Z,66.28
2018-07-14T02:43:43.211Z,66.47
2018-07-14T02:44:43.191Z,66.08
2018-07-14T02:45:43.212Z,66.47
2018-07-14T02:46:43.175Z,66.17
2018-07-14T02:47:43.158Z,66.08
2018-07-14T02:48:43.145Z,66.08
2018-07-14T02:49:43.138Z,66.28
2018-07-14T02:50:43.142Z,65.77
2018-07-14T02:51:43.167Z,65.97
2018-07-14T02:52:43.111Z,65.97
2018-07-14T02:53:43.094Z,65.70
2018-07-14T02:54:43.091Z,65.70
2018-07-14T02:55:43.080Z,65.50
2018-07-14T02:56:43.088Z,65.50
2018-07-14T02:57:43.049Z,65.41
2018-07-14T02:58:43.043Z,65.80
2018-07-14T02:59:43.081Z,65.80
2018-07-14T03:00:43.019Z,67.01
2018-07-14T03:01:43.003Z,66.61
2018-07-14T03:02:43.023Z,66.41
2018-07-14T03:03:42.979Z,66.20
2018-07-14T03:04:42.981Z,67.01
2018-07-14T03:05:42.958Z,66.51
2018-07-14T03:06:42.945Z,66.91
2018-07-14T03:07:42.936Z,66.81
2018-07-14T03:08:42.945Z,66.81
2018-07-14T03:09:42.913Z,66.74
2018-07-14T03:10:42.904Z,66.94
2018-07-14T03:11:42.900Z,66.54
2018-07-14T03:12:42.884Z,67.04
2018-07-14T03:13:42.891Z,66.54
2018-07-14T03:14:42.858Z,66.74
2018-07-14T03:15:42.846Z,66.64
2018-07-14T03:16:42.837Z,66.64
2018-07-14T03:17:42.840Z,67.04
2018-07-14T03:18:42.839Z,67.04
2018-07-14T03:19:42.803Z,66.94
2018-07-14T03:20:42.789Z,66.84
2018-07-14T03:21:42.780Z,67.35
2018-07-14T03:22:42.775Z,66.94
2018-07-14T03:23:42.766Z,67.44
2018-07-14T03:24:42.774Z,67.24
2018-07-14T03:25:42.736Z,68.25
2018-07-14T03:26:42.723Z,68.35
2018-07-14T03:27:42.754Z,69.15
2018-07-14T03:28:42.701Z,68.45
2018-07-14T03:29:42.690Z,68.15
2018-07-14T03:30:42.700Z,68.55
2018-07-14T03:31:42.671Z,68.55
2018-07-14T03:32:42.658Z,68.78
2018-07-14T03:33:42.646Z,69.18
2018-07-14T03:34:42.639Z,68.59
2018-07-14T03:35:42.650Z,68.75
2018-07-14T03:36:42.673Z,68.48
2018-07-14T03:37:42.604Z,68.59
2018-07-14T03:38:42.591Z,68.85
2018-07-14T03:39:42.584Z,68.48
2018-07-14T03:40:42.607Z,68.59
2018-07-14T03:41:42.583Z,68.08
2018-07-14T03:42:42.546Z,68.28
2018-07-14T03:43:42.539Z,68.68
2018-07-14T03:44:42.525Z,69.09
2018-07-14T03:45:42.513Z,69.49
2018-07-14T03:46:42.528Z,69.38
2018-07-14T03:47:42.489Z,69.49
2018-07-14T03:48:42.480Z,69.18
2018-07-14T03:49:42.470Z,69.59
2018-07-14T03:50:42.479Z,68.78
2018-07-14T03:51:42.447Z,68.88
2018-07-14T03:52:42.452Z,69.09
2018-07-14T03:53:42.425Z,68.88
2018-07-14T03:54:42.412Z,69.29
2018-07-14T03:55:42.401Z,69.09
2018-07-14T03:56:42.392Z,69.49
2018-07-14T03:57:42.398Z,68.45
2018-07-14T03:58:42.371Z,69.49
2018-07-14T03:59:42.361Z,68.68
2018-07-14T04:00:42.348Z,69.45
2018-07-14T04:01:42.336Z,68.68
2018-07-14T04:02:42.344Z,69.29
2018-07-14T04:03:42.324Z,69.18
2018-07-14T04:04:42.302Z,69.59
2018-07-14T04:05:42.295Z,69.38
2018-07-14T04:06:42.284Z,69.29
2018-07-14T04:07:42.273Z,69.29
2018-07-14T04:08:42.286Z,68.88
2018-07-14T04:09:42.246Z,69.38
2018-07-14T04:10:42.233Z,69.59
2018-07-14T04:11:42.228Z,69.69
2018-07-14T04:12:42.211Z,68.88
2018-07-14T04:13:42.246Z,68.59
2018-07-14T04:14:42.238Z,68.78
2018-07-14T04:15:42.180Z,69.09
2018-07-14T04:16:42.168Z,68.59
2018-07-14T04:17:42.157Z,68.88
2018-07-14T04:18:42.149Z,68.65
2018-07-14T04:19:42.152Z,68.12
2018-07-14T04:20:42.130Z,68.45
2018-07-14T04:21:42.112Z,68.15
2018-07-14T04:22:42.101Z,68.65
2018-07-14T04:23:42.092Z,68.45
2018-07-14T04:24:42.125Z,68.65
2018-07-14T04:25:42.072Z,69.25
2018-07-14T04:26:42.078Z,68.55
2018-07-14T04:27:42.048Z,68.82
2018-07-14T04:28:42.036Z,67.98
2018-07-14T04:29:42.029Z,66.91
2018-07-14T04:30:42.030Z,65.55
2018-07-14T04:31:42.055Z,64.81
2018-07-14T04:32:41.991Z,63.58
2018-07-14T04:33:41.979Z,61.52
2018-07-14T04:34:41.978Z,60.59
2018-07-14T04:35:41.985Z,59.86
2018-07-14T04:36:41.957Z,59.17
2018-07-14T04:37:41.935Z,58.81
2018-07-14T04:38:41.924Z,58.44
2018-07-14T04:39:41.924Z,58.44
2018-07-14T04:40:41.902Z,57.91
2018-07-14T04:41:41.906Z,58.01
2018-07-14T04:42:41.887Z,57.14
2018-07-14T04:43:41.868Z,57.84
2018-07-14T04:44:41.858Z,56.98
2018-07-14T04:45:41.849Z,56.79
2018-07-14T04:46:41.900Z,56.26
2018-07-14T04:47:41.827Z,55.73
2018-07-14T04:48:41.816Z,54.68
2018-07-14T04:49:41.823Z,54.79
2018-07-14T04:50:41.792Z,53.76
2018-07-14T04:51:41.780Z,53.14
2018-07-14T04:52:41.791Z,52.34
2018-07-14T04:53:41.771Z,51.84
2018-07-14T04:54:41.754Z,52.12
2018-07-14T04:55:41.738Z,51.72
2018-07-14T04:56:41.724Z,53.27
2018-07-14T04:57:41.714Z,53.19
2018-07-14T04:58:41.720Z,52.24
2018-07-14T04:59:41.695Z,51.84
2018-07-14T05:00:41.684Z,51.82
2018-07-14T05:01:41.679Z,51.60
2018-07-14T05:02:41.661Z,49.98
2018-07-14T05:03:41.677Z,51.42
2018-07-14T05:04:41.645Z,51.92
2018-07-14T05:05:41.630Z,52.51
2018-07-14T05:06:41.616Z,51.28
2018-07-14T05:07:41.604Z,49.96
2018-07-14T05:08:41.605Z,49.84
2018-07-14T05:09:41.602Z,49.09
2018-07-14T05:10:41.569Z,47.78
2018-07-14T05:11:41.560Z,47.75
2018-07-14T05:12:41.566Z,46.84
2018-07-14T05:13:41.537Z,46.86
2018-07-14T05:14:41.527Z,46.77
2018-07-14T05:15:41.532Z,46.45
2018-07-14T05:16:41.506Z,46.23
2018-07-14T05:17:41.497Z,45.75
2018-07-14T05:18:41.494Z,47.19
2018-07-14T05:19:41.486Z,46.79
2018-07-14T05:20:41.482Z,46.45
2018-07-14T05:21:41.459Z,45.83
2018-07-14T05:22:41.443Z,44.72
2018-07-14T05:23:41.434Z,45.12
2018-07-14T05:24:41.418Z,44.28
2018-07-14T05:25:41.409Z,44.06
2018-07-14T05:26:41.415Z,43.37
2018-07-14T05:27:41.384Z,43.37
2018-07-14T05:28:41.446Z,43.49
2018-07-14T05:29:41.362Z,43.17
2018-07-14T05:30:41.363Z,42.96
2018-07-14T05:31:41.342Z,42.64
2018-07-14T05:32:41.348Z,43.94
2018-07-14T05:33:41.332Z,42.96
2018-07-14T05:34:41.310Z,43.37
2018-07-14T05:35:41.312Z,44.48
2018-07-14T05:36:41.290Z,44.80
2018-07-14T05:37:41.313Z,44.16
2018-07-14T05:38:41.269Z,44.46
2018-07-14T05:39:41.255Z,44.14
2018-07-14T05:40:41.244Z,43.03
2018-07-14T05:41:41.235Z,43.35
2018-07-14T05:42:41.221Z,43.98
2018-07-14T05:43:41.237Z,46.20
2018-07-14T05:44:41.201Z,45.61
2018-07-14T05:45:41.190Z,46.23
2018-07-14T05:46:41.179Z,46.25
2018-07-14T05:47:41.169Z,47.04
2018-07-14T05:48:41.197Z,47.26
2018-07-14T05:49:41.147Z,46.35
2018-07-14T05:50:41.135Z,46.74
2018-07-14T05:51:41.130Z,46.86
2018-07-14T05:52:41.125Z,48.10
2018-07-14T05:53:41.104Z,49.19
2018-07-14T05:54:41.111Z,47.24
2018-07-14T05:55:41.084Z,46.52
2018-07-14T05:56:41.097Z,44.95
2018-07-14T05:57:41.061Z,44.14
2018-07-14T05:58:41.053Z,44.78
2018-07-14T05:59:41.065Z,44.46
2018-07-14T06:00:41.030Z,44.46
2018-07-14T06:01:41.017Z,43.92
2018-07-14T06:02:41.006Z,43.84
2018-07-14T06:03:40.996Z,42.89
2018-07-14T06:04:40.990Z,42.47
2018-07-14T06:05:40.996Z,42.69
2018-07-14T06:06:40.966Z,42.82
2018-07-14T06:07:40.985Z,43.13
2018-07-14T06:08:40.942Z,43.52
2018-07-14T06:09:40.938Z,43.41
2018-07-14T06:10:40.942Z,41.96
2018-07-14T06:11:40.910Z,41.04
2018-07-14T06:12:40.902Z,41.96
2018-07-14T06:13:40.894Z,40.94
2018-07-14T06:14:40.879Z,39.72
2018-07-14T06:15:40.875Z,39.01
2018-07-14T06:16:40.885Z,40.41
2018-07-14T06:17:40.848Z,40.33
2018-07-14T06:18:40.839Z,40.82
2018-07-14T06:19:40.891Z,41.17
2018-07-14T06:20:40.823Z,42.16
2018-07-14T06:21:40.808Z,42.36
2018-07-14T06:22:40.814Z,41.14
2018-07-14T06:23:40.786Z,40.09
2018-07-14T06:24:40.773Z,38.98
2018-07-14T06:25:40.763Z,39.60
2018-07-14T06:26:40.753Z,39.80
2018-07-14T06:27:40.757Z,39.62
2018-07-14T06:28:40.737Z,40.29
2018-07-14T06:29:40.722Z,40.29
2018-07-14T06:30:40.710Z,43.11
2018-07-14T06:31:40.698Z,42.18
2018-07-14T06:32:40.750Z,41.24
2018-07-14T06:33:40.677Z,41.02
2018-07-14T06:34:40.669Z,43.01
2018-07-14T06:35:40.657Z,42.77
2018-07-14T06:36:40.648Z,41.35
2018-07-14T06:37:40.638Z,41.83
2018-07-14T06:38:40.763Z,40.41
2018-07-14T06:39:40.619Z,38.76
2018-07-14T06:40:40.608Z,39.37
2018-07-14T06:41:40.596Z,37.94
2018-07-14T06:42:40.591Z,36.80
2018-07-14T06:43:40.607Z,35.61
2018-07-14T06:44:40.649Z,38.39
2018-07-14T06:45:40.554Z,41.85
2018-07-14T06:46:40.543Z,41.53
2018-07-14T06:47:40.534Z,41.43
2018-07-14T06:48:40.522Z,42.26
2018-07-14T06:49:40.528Z,42.68
2018-07-14T06:50:40.517Z,43.13
2018-07-14T06:51:40.496Z,44.36
2018-07-14T06:52:40.501Z,44.32
2018-07-14T06:53:40.477Z,42.95
2018-07-14T06:54:40.515Z,40.84
2018-07-14T06:55:40.452Z,40.53
2018-07-14T06:56:40.445Z,39.90
2018-07-14T06:57:40.429Z,39.17
2018-07-14T06:58:40.421Z,38.98
2018-07-14T06:59:40.419Z,38.80
2018-07-14T07:00:40.422Z,40.19
2018-07-14T07:01:40.387Z,41.43
2018-07-14T07:02:40.379Z,41.16
2018-07-14T07:03:40.371Z,41.33
2018-07-14T07:04:40.362Z,39.70
2018-07-14T07:05:40.367Z,40.09
2018-07-14T07:06:40.360Z,39.47
2018-07-14T07:07:40.331Z,38.54
2018-07-14T07:08:40.329Z,37.12
2018-07-14T07:09:40.338Z,36.80
2018-07-14T07:10:40.307Z,35.87
2018-07-14T07:11:40.318Z,35.25
2018-07-14T07:12:40.280Z,34.48
2018-07-14T07:13:40.277Z,37.13
2018-07-14T07:14:40.256Z,37.94
2018-07-14T07:15:40.263Z,36.49
2018-07-14T07:16:40.266Z,35.68
2018-07-14T07:17:40.233Z,34.84
2018-07-14T07:18:40.218Z,34.38
2018-07-14T07:19:40.208Z,36.30
2018-07-14T07:20:40.199Z,37.35
2018-07-14T07:21:40.206Z,37.35
2018-07-14T07:22:40.198Z,36.43
2018-07-14T07:23:40.167Z,36.94
2018-07-14T07:24:40.158Z,39.07
2018-07-14T07:25:40.171Z,40.41
2018-07-14T07:26:40.138Z,39.80
2018-07-14T07:27:40.141Z,38.68
2018-07-14T07:28:40.152Z,38.53
2018-07-14T07:29:40.112Z,37.31
2018-07-14T07:30:40.100Z,36.28
2018-07-14T07:31:40.104Z,35.52
2018-07-14T07:32:40.079Z,35.77
2018-07-14T07:33:40.093Z,35.25
2018-07-14T07:34:40.154Z,34.70
2018-07-14T07:35:40.094Z,36.41
2018-07-14T07:36:40.043Z,37.51
2018-07-14T07:37:40.030Z,36.96
2018-07-14T07:38:40.037Z,39.80
2018-07-14T07:39:40.041Z,38.78
2018-07-14T07:40:40.004Z,37.63
2018-07-14T07:41:40.025Z,38.21
2018-07-14T07:42:39.985Z,37.23
2018-07-14T07:43:39.975Z,36.84
2018-07-14T07:44:39.965Z,36.18
2018-07-14T07:45:39.980Z,36.05
2018-07-14T07:46:39.942Z,35.07
2018-07-14T07:47:39.940Z,34.92
2018-07-14T07:48:39.934Z,34.45
2018-07-14T07:49:39.911Z,34.26
2018-07-14T07:50:39.902Z,34.65
2018-07-14T07:51:39.913Z,35.71
2018-07-14T07:52:39.884Z,36.94
2018-07-14T07:53:39.881Z,38.37
2018-07-14T07:54:39.866Z,38.45
2018-07-14T07:55:39.859Z,37.31
2018-07-14T07:56:39.861Z,37.04
2018-07-14T07:57:39.839Z,36.51
2018-07-14T07:58:39.842Z,36.75
2018-07-14T07:59:39.825Z,35.27
2018-07-14T08:00:39.810Z,34.36
2018-07-14T08:01:39.843Z,34.06
2018-07-14T08:02:39.798Z,35.68
2018-07-14T08:03:39.787Z,35.97
2018-07-14T08:04:39.770Z,36.47
2018-07-14T08:05:39.796Z,35.27
2018-07-14T08:06:39.763Z,34.78
2018-07-14T08:07:39.773Z,35.45
2018-07-14T08:08:39.866Z,34.65
2018-07-14T08:09:40.682Z,35.32
2018-07-14T08:10:39.711Z,34.83
2018-07-14T08:11:39.729Z,35.93
2018-07-14T08:12:39.695Z,36.10
2018-07-14T08:13:39.736Z,34.48
2018-07-14T08:14:39.674Z,33.36
2018-07-14T08:15:39.667Z,32.32
2018-07-14T08:16:39.660Z,31.84
2018-07-14T08:17:39.654Z,31.45
2018-07-14T08:18:39.686Z,30.91
2018-07-14T08:19:39.628Z,32.79
2018-07-14T08:20:39.621Z,32.82
2018-07-14T08:21:39.624Z,31.71
2018-07-14T08:22:39.639Z,30.69
2018-07-14T08:23:39.593Z,30.40
2018-07-14T08:24:39.603Z,30.52
2018-07-14T08:25:39.578Z,30.40
2018-07-14T08:26:39.569Z,30.32
2018-07-14T08:27:39.585Z,32.92
2018-07-14T08:28:39.546Z,31.85
2018-07-14T08:29:39.553Z,31.45
2018-07-14T08:30:39.543Z,29.94
2018-07-14T08:31:39.528Z,30.02
2018-07-14T08:32:39.511Z,29.41
2018-07-14T08:33:39.503Z,28.41
2018-07-14T08:34:39.492Z,28.69
2018-07-14T08:35:39.500Z,28.55
2018-07-14T08:36:39.478Z,27.57
2018-07-14T08:37:39.466Z,27.46
2018-07-14T08:38:39.458Z,27.36
2018-07-14T08:39:39.452Z,26.40
2018-07-14T08:40:39.475Z,28.91
2018-07-14T08:41:39.448Z,30.15
2018-07-14T08:42:39.421Z,31.76
2018-07-14T08:43:39.466Z,31.03
2018-07-14T08:44:39.453Z,30.14
2018-07-14T08:45:39.392Z,29.14
2018-07-14T08:46:39.409Z,30.05
2018-07-14T08:47:39.376Z,29.44
2018-07-14T08:48:39.370Z,28.75
2018-07-14T08:49:39.358Z,29.40
2018-07-14T08:50:39.352Z,28.89
2018-07-14T08:51:39.367Z,28.89
2018-07-14T08:52:39.351Z,28.40
2018-07-14T08:53:39.324Z,29.12
2018-07-14T08:54:39.330Z,28.68
2018-07-14T08:55:39.307Z,27.97
2018-07-14T08:56:39.298Z,27.97
2018-07-14T08:57:39.318Z,27.58
2018-07-14T08:58:39.281Z,26.72
2018-07-14T08:59:39.275Z,27.09
2018-07-14T09:00:39.266Z,26.28
2018-07-14T09:01:39.263Z,25.59
2018-07-14T09:02:39.248Z,25.62
2018-07-14T09:03:39.284Z,26.61
2018-07-14T09:04:39.231Z,26.52
2018-07-14T09:05:39.223Z,26.72
2018-07-14T09:06:39.216Z,26.92
2018-07-14T09:07:39.208Z,27.11
2018-07-14T09:08:39.203Z,28.30
2018-07-14T09:09:39.221Z,28.69
2018-07-14T09:10:39.204Z,27.81
2018-07-14T09:11:39.203Z,28.34
2018-07-14T09:12:39.165Z,28.74
2018-07-14T09:13:39.154Z,27.93
2018-07-14T09:14:39.150Z,28.43
2018-07-14T09:15:39.154Z,26.54
2018-07-14T09:16:39.154Z,27.51
2018-07-14T09:17:39.548Z,26.70
2018-07-14T09:18:39.113Z,26.14
2018-07-14T09:19:39.126Z,26.65
2018-07-14T09:20:39.096Z,27.45
2018-07-14T09:21:39.091Z,27.91
2018-07-14T09:22:39.081Z,27.00
2018-07-14T09:23:39.074Z,26.39
2018-07-14T09:24:39.065Z,26.41
2018-07-14T09:25:39.094Z,26.42
2018-07-14T09:26:39.050Z,27.58
2018-07-14T09:27:39.042Z,27.51
2018-07-14T09:28:39.035Z,27.72
2018-07-14T09:29:39.025Z,28.64
2018-07-14T09:30:39.073Z,28.90
2018-07-14T09:31:39.070Z,27.78
2018-07-14T09:32:39.020Z,26.88
2018-07-14T09:33:38.993Z,25.89
2018-07-14T09:34:38.986Z,25.02
2018-07-14T09:35:38.978Z,26.07
2018-07-14T09:36:38.970Z,25.08
2018-07-14T09:37:38.979Z,26.53
2018-07-14T09:38:38.954Z,26.59
2018-07-14T09:39:38.945Z,29.26
2018-07-14T09:40:39.075Z,30.57
2018-07-14T09:41:38.931Z,32.37
2018-07-14T09:42:38.948Z,29.97
2018-07-14T09:43:38.915Z,30.09
2018-07-14T09:44:38.984Z,28.91
2018-07-14T09:45:38.898Z,28.22
2018-07-14T09:46:38.891Z,29.55
2018-07-14T09:47:38.941Z,30.28
2018-07-14T09:48:39.186Z,31.06
2018-07-14T09:49:38.865Z,30.22
2018-07-14T09:50:38.857Z,28.43
2018-07-14T09:51:38.859Z,28.90
2018-07-14T09:52:38.840Z,28.40
2018-07-14T09:53:38.835Z,28.03
2018-07-14T09:54:38.846Z,30.08
2018-07-14T09:55:38.826Z,27.42
2018-07-14T09:56:38.809Z,28.59
2018-07-14T09:57:38.804Z,28.02
2018-07-14T09:58:38.794Z,28.04
2018-07-14T09:59:38.817Z,27.33
2018-07-14T10:00:38.777Z,28.97
2018-07-14T10:01:38.771Z,26.42
2018-07-14T10:02:38.783Z,27.89
2018-07-14T10:03:38.753Z,27.60
2018-07-14T10:04:38.777Z,26.21
2018-07-14T10:05:38.753Z,26.79
2018-07-14T10:06:38.730Z,25.62
2018-07-14T10:07:38.752Z,25.73
2018-07-14T10:08:38.712Z,25.62
2018-07-14T10:09:38.707Z,26.39
2018-07-14T10:10:38.716Z,27.46
2018-07-14T10:11:38.690Z,26.73
2018-07-14T10:12:38.682Z,27.50
2018-07-14T10:13:38.684Z,26.82
2018-07-14T10:14:38.668Z,27.43
2018-07-14T10:15:38.671Z,27.92
2018-07-14T10:16:38.666Z,27.79
2018-07-14T10:17:38.831Z,27.29
2018-07-14T10:18:38.633Z,26.81
2018-07-14T10:19:38.647Z,26.68
2018-07-14T10:20:38.615Z,26.12
2018-07-14T10:21:38.651Z,27.70
2018-07-14T10:22:38.601Z,27.60
2018-07-14T10:23:38.594Z,26.63
2018-07-14T10:24:38.592Z,26.52
2018-07-14T10:25:38.870Z,26.56
2018-07-14T10:26:38.586Z,24.98
2018-07-14T10:27:38.577Z,24.54
2018-07-14T10:28:38.552Z,25.40
2018-07-14T10:29:38.544Z,25.98
2018-07-14T10:30:38.537Z,25.89
2018-07-14T10:31:38.529Z,25.29
2018-07-14T10:32:38.548Z,25.13
2018-07-14T10:33:38.563Z,25.44
2018-07-14T10:34:38.513Z,26.09
2018-07-14T10:35:38.501Z,24.72
2018-07-14T10:36:38.493Z,24.88
2018-07-14T10:37:38.484Z,26.64
2018-07-14T10:38:38.510Z,26.46
2018-07-14T10:39:38.613Z,29.05
2018-07-14T10:40:38.469Z,27.36
2018-07-14T10:41:38.458Z,28.65
2018-07-14T10:42:38.449Z,28.33
2018-07-14T10:43:38.458Z,27.35
2018-07-14T10:44:38.436Z,25.96
2018-07-14T10:45:38.427Z,26.07
2018-07-14T10:46:38.495Z,26.75
2018-07-14T10:47:38.410Z,24.87
2018-07-14T10:48:38.401Z,25.34
2018-07-14T10:49:38.425Z,25.72
2018-07-14T10:50:38.387Z,25.42
2018-07-14T10:51:38.619Z,26.32
2018-07-14T10:52:38.371Z,26.64
2018-07-14T10:53:38.365Z,26.46
2018-07-14T10:54:38.395Z,26.34
2018-07-14T10:55:38.423Z,26.21
2018-07-14T10:56:38.346Z,26.54
2018-07-14T10:57:38.339Z,27.58
2018-07-14T10:58:38.328Z,27.62
2018-07-14T10:59:38.483Z,31.22
2018-07-14T11:00:38.333Z,30.39
2018-07-14T11:01:38.364Z,29.19
2018-07-14T11:02:38.299Z,27.69
2018-07-14T11:03:38.581Z,27.97
2018-07-14T11:04:38.284Z,28.55
2018-07-14T11:05:38.303Z,28.00
2018-07-14T11:06:38.273Z,28.55
2018-07-14T11:07:38.407Z,27.76
2018-07-14T11:08:38.256Z,28.74
2018-07-14T11:09:38.247Z,26.57
2018-07-14T11:10:38.307Z,26.20
2018-07-14T11:11:38.338Z,26.65
2018-07-14T11:12:38.238Z,26.75
2018-07-14T11:13:38.219Z,26.48
2018-07-14T11:14:38.211Z,27.25
2018-07-14T11:15:38.206Z,29.43
2018-07-14T11:16:38.195Z,27.08
2018-07-14T11:17:38.233Z,27.68
2018-07-14T11:18:38.182Z,27.66
2018-07-14T11:19:38.229Z,27.28
2018-07-14T11:20:38.165Z,28.33
2018-07-14T11:21:38.206Z,27.58
2018-07-14T11:22:38.176Z,29.26
2018-07-14T11:23:38.288Z,29.50
2018-07-14T11:24:38.133Z,30.90
2018-07-14T11:25:38.164Z,30.94
2018-07-14T11:26:38.145Z,31.93
2018-07-14T11:27:38.107Z,31.90
2018-07-14T11:28:38.123Z,30.83
2018-07-14T11:29:38.093Z,30.94
2018-07-14T11:30:38.094Z,31.43
2018-07-14T11:31:38.085Z,31.31
2018-07-14T11:32:38.174Z,30.44
2018-07-14T11:33:38.059Z,30.32
2018-07-14T11:34:38.237Z,30.71
2018-07-14T11:35:38.043Z,30.94
2018-07-14T11:36:38.059Z,33.43
2018-07-14T11:37:38.091Z,33.36
2018-07-14T11:38:38.171Z,34.16
2018-07-14T11:39:38.058Z,34.38
2018-07-14T11:40:38.001Z,34.36
2018-07-14T11:41:37.992Z,33.41
2018-07-14T11:42:37.997Z,34.47
2018-07-14T11:43:37.976Z,34.00
2018-07-14T11:44:37.997Z,33.98
2018-07-14T11:45:37.972Z,32.70
2018-07-14T11:46:38.002Z,32.60
2018-07-14T11:47:38.073Z,33.36
2018-07-14T11:48:37.932Z,34.24
2018-07-14T11:49:38.013Z,33.75
2018-07-14T11:50:37.953Z,33.33
2018-07-14T11:51:37.953Z,32.65
2018-07-14T11:52:37.899Z,32.68
2018-07-14T11:53:37.891Z,32.89
2018-07-14T11:54:37.892Z,33.77
2018-07-14T11:55:37.873Z,33.50
2018-07-14T11:56:37.897Z,34.78
2018-07-14T11:57:37.855Z,35.55
2018-07-14T11:58:37.947Z,34.08
2018-07-14T11:59:37.837Z,35.14
2018-07-14T12:00:37.839Z,33.48
2018-07-14T12:01:37.896Z,33.36
2018-07-14T12:02:37.812Z,33.18
2018-07-14T12:03:37.836Z,34.49
2018-07-14T12:04:37.813Z,34.80
2018-07-14T12:05:37.783Z,34.21
2018-07-14T12:06:37.775Z,35.16
2018-07-14T12:07:37.777Z,36.85
2018-07-14T12:08:37.767Z,36.16
2018-07-14T12:09:37.745Z,35.44
2018-07-14T12:10:37.737Z,35.34
2018-07-14T12:11:37.724Z,36.80
2018-07-14T12:12:37.749Z,34.44
2018-07-14T12:13:37.707Z,35.41
2018-07-14T12:14:37.716Z,33.82
2018-07-14T12:15:37.696Z,32.73
2018-07-14T12:16:37.678Z,33.22
2018-07-14T12:17:37.699Z,34.49
2018-07-14T12:18:37.679Z,32.82
2018-07-14T12:19:37.729Z,33.53
2018-07-14T12:20:37.640Z,34.54
2018-07-14T12:21:37.666Z,35.42
2018-07-14T12:22:37.641Z,34.56
2018-07-14T12:23:37.613Z,35.44
2018-07-14T12:24:37.623Z,35.33
2018-07-14T12:25:37.589Z,34.64
2018-07-14T12:26:37.760Z,35.03
2018-07-14T12:27:37.627Z,36.32
2018-07-14T12:28:37.610Z,36.32
2018-07-14T12:29:37.621Z,36.11
2018-07-14T12:30:37.613Z,35.54
2018-07-14T12:31:37.531Z,36.52
2018-07-14T12:32:37.537Z,34.74
2018-07-14T12:33:37.509Z,35.24
2018-07-14T12:34:37.578Z,35.54
2018-07-14T12:35:37.497Z,35.66
2018-07-14T12:36:37.497Z,36.46
2018-07-14T12:37:37.518Z,35.26
2018-07-14T12:38:37.461Z,34.56
2018-07-14T12:39:37.450Z,34.54
2018-07-14T12:40:37.463Z,33.46
2018-07-14T12:41:37.442Z,33.17
2018-07-14T12:42:37.418Z,34.25
2018-07-14T12:43:37.409Z,34.62
2018-07-14T12:44:37.509Z,33.23
2018-07-14T12:45:37.390Z,34.33
2018-07-14T12:46:37.399Z,34.44
2018-07-14T12:47:37.391Z,35.50
2018-07-14T12:48:37.359Z,35.54
2018-07-14T12:49:37.350Z,36.44
2018-07-14T12:50:37.348Z,36.75
2018-07-14T12:51:37.343Z,36.67
2018-07-14T12:52:37.320Z,36.77